Time;durP1;ratioP1;P1;durP2;ratioP2;P2;SDS_P1;SDS_P2;PMS_P1;PMS_P2;Temp;Humidity;BMP_temperature;BMP_pressure;BME280_temperature;BME280_humidity;BME280_pressure;Samples;Min_cycle;Max_cycle;Signal;HPM_P1;HPM_P2
2021/12/13 00:02:26;;;;;;;1.90;1.80;;;;;;;3.15;100.00;100375.53;5072603;28;20728;-73
2021/12/13 00:05:00;;;;;;;4.17;3.67;;;;;;;3.16;100.00;100373.03;5092169;28;20201;-73
2021/12/13 00:07:30;;;;;;;7.17;3.47;;;;;;;3.20;100.00;100380.09;5075844;28;20182;-73
2021/12/13 00:09:59;;;;;;;4.13;3.73;;;;;;;3.17;100.00;100374.81;5072697;28;20195;-73
2021/12/13 00:12:32;;;;;;;4.40;3.73;;;;;;;3.12;100.00;100381.38;5071833;28;20195;-73
2021/12/13 00:15:00;;;;;;;3.97;2.93;;;;;;;3.11;100.00;100379.63;5072104;28;20297;-73
2021/12/13 00:17:37;;;;;;;3.10;2.80;;;;;;;3.17;100.00;100374.81;5071521;28;20578;-73
2021/12/13 00:20:12;;;;;;;1.87;1.77;;;;;;;3.18;100.00;100375.66;5094509;28;20603;-73
2021/12/13 00:22:43;;;;;;;4.23;3.70;;;;;;;3.12;100.00;100358.31;5082700;28;20316;-73
2021/12/13 00:25:12;;;;;;;3.27;2.97;;;;;;;3.18;100.00;100366.31;5075765;28;20267;-73
2021/12/13 00:27:42;;;;;;;5.87;3.80;;;;;;;2.99;100.00;100366.22;5078424;28;20198;-73
2021/12/13 00:30:14;;;;;;;4.73;4.13;;;;;;;2.84;100.00;100340.75;5095643;28;20194;-73
2021/12/13 00:33:07;;;;;;;3.23;2.93;;;;;;;2.98;100.00;100370.47;5095666;28;20198;-73
2021/12/13 00:35:38;;;;;;;3.83;3.53;;;;;;;3.04;100.00;100372.44;5095633;28;20299;-73
2021/12/13 00:38:09;;;;;;;3.13;2.73;;;;;;;3.16;100.00;100373.03;5095846;28;20217;-73
2021/12/13 00:40:42;;;;;;;3.73;3.23;;;;;;;3.24;100.00;100376.88;5091328;28;20734;-73
2021/12/13 00:43:12;;;;;;;2.87;2.67;;;;;;;3.23;100.00;100372.53;5075387;28;20234;-74
2021/12/13 00:45:47;;;;;;;4.83;3.07;;;;;;;3.14;100.00;100368.66;5075338;28;20206;-72
2021/12/13 00:48:16;;;;;;;3.87;3.57;;;;;;;3.17;100.00;100371.38;5075101;28;20205;-73
2021/12/13 00:50:50;;;;;;;4.10;3.33;;;;;;;3.19;100.00;100372.31;5074512;28;20206;-73
2021/12/13 00:53:18;;;;;;;2.20;2.07;;;;;;;3.17;100.00;100374.81;5094070;28;20198;-73
2021/12/13 00:55:47;;;;;;;3.43;3.13;;;;;;;3.35;100.00;100396.19;5095204;28;20198;-73
2021/12/13 00:58:16;;;;;;;4.27;3.40;;;;;;;3.47;100.00;100396.78;5095387;28;20190;-73
2021/12/13 01:00:46;;;;;;;4.87;3.33;;;;;;;3.45;100.00;100398.41;5081788;28;20209;-73
2021/12/13 01:03:20;;;;;;;3.37;3.10;;;;;;;3.52;100.00;100391.00;5079011;28;20217;-73
2021/12/13 01:06:36;;;;;;;3.50;3.20;;;;;;;3.46;100.00;100395.00;5094643;28;20612;-73
2021/12/13 01:10:21;;;;;;;4.80;2.90;;;;;;;3.56;100.00;100398.91;5062219;28;20662;-73
2021/12/13 01:12:51;;;;;;;3.60;3.10;;;;;;;3.54;100.00;100391.94;5012540;28;20572;-73
2021/12/13 01:15:29;;;;;;;4.23;3.17;;;;;;;3.45;100.00;100388.16;5012783;28;20193;-73
2021/12/13 01:18:04;;;;;;;4.10;2.67;;;;;;;3.47;100.00;100383.09;5060420;28;20201;-73
2021/12/13 01:20:44;;;;;;;3.40;3.03;;;;;;;3.59;100.00;100385.34;5073557;28;20229;-73
2021/12/13 01:23:27;;;;;;;4.10;3.10;;;;;;;3.55;100.00;100393.69;5074564;28;20226;-73
2021/12/13 01:26:02;;;;;;;5.13;3.47;;;;;;;3.38;100.00;100383.53;5074423;28;20207;-73
2021/12/13 01:28:32;;;;;;;3.47;3.17;;;;;;;3.32;100.00;100370.41;5073703;28;20194;-73
2021/12/13 01:31:02;;;;;;;3.83;3.17;;;;;;;3.45;100.00;100383.03;5074279;28;20206;-72
2021/12/13 01:33:33;;;;;;;5.80;3.60;;;;;;;3.60;100.00;100399.94;5074110;28;20248;-73
2021/12/13 01:36:03;;;;;;;3.10;2.90;;;;;;;3.52;100.00;100399.56;5073970;28;20227;-73
2021/12/13 01:38:34;;;;;;;3.47;3.20;;;;;;;3.48;100.00;100398.53;5074372;28;20202;-73
2021/12/13 01:41:08;;;;;;;3.87;3.07;;;;;;;3.56;100.00;100400.59;5073750;28;20293;-73
2021/12/13 01:43:38;;;;;;;3.87;3.30;;;;;;;3.57;100.00;100410.06;5073925;28;20258;-73
2021/12/13 01:46:05;;;;;;;4.30;3.83;;;;;;;3.37;100.00;100402.28;5074319;28;20191;-73
2021/12/13 01:48:34;;;;;;;4.70;3.30;;;;;;;3.49;100.00;100405.44;5073972;28;20194;-73
2021/12/13 01:51:10;;;;;;;4.27;3.87;;;;;;;3.52;100.00;100408.94;5072775;28;20252;-73
2021/12/13 01:53:41;;;;;;;3.77;3.43;;;;;;;3.63;100.00;100394.94;5073953;28;20198;-73
2021/12/13 01:56:35;;;;;;;4.93;2.83;;;;;;;3.54;100.00;100399.63;5073654;28;20194;-75
2021/12/13 01:59:16;;;;;;;1.77;1.67;;;;;;;3.49;100.00;100395.19;5074167;28;20586;-73
2021/12/13 02:01:43;;;;;;;3.03;2.77;;;;;;;3.50;100.00;100386.66;5073990;28;20223;-73
2021/12/13 02:04:13;;;;;;;4.90;3.17;;;;;;;3.43;100.00;100400.00;5073272;28;20285;-73
2021/12/13 02:06:42;;;;;;;3.67;2.73;;;;;;;3.40;100.00;100404.97;5073925;28;20224;-73
2021/12/13 02:09:13;;;;;;;3.37;3.07;;;;;;;3.47;100.00;100396.78;5073286;28;20587;-73
2021/12/13 02:11:44;;;;;;;4.77;3.20;;;;;;;3.54;100.00;100397.06;5073895;28;20199;-73
2021/12/13 02:14:20;;;;;;;2.40;2.10;;;;;;;3.57;100.00;100394.66;5073837;28;20199;-73
2021/12/13 02:17:08;;;;;;;5.87;4.20;;;;;;;3.43;100.00;100366.69;5073794;28;20611;-73
2021/12/13 02:19:41;;;;;;;5.33;3.70;;;;;;;3.55;100.00;100399.72;5072837;28;20245;-73
2021/12/13 02:22:43;;;;;;;4.83;3.30;;;;;;;3.62;100.00;100398.31;5073252;28;20276;-74
2021/12/13 02:25:19;;;;;;;2.17;2.07;;;;;;;3.31;100.00;100361.00;5072136;28;20281;-73
2021/12/13 02:27:50;;;;;;;3.57;3.27;;;;;;;3.60;100.00;100397.38;5090859;28;20205;-73
2021/12/13 02:30:23;;;;;;;4.53;3.63;;;;;;;3.47;100.00;100390.78;5074209;28;20190;-73
2021/12/13 02:32:50;;;;;;;7.30;4.57;;;;;;;3.54;100.00;100404.75;5073423;28;20202;-73
2021/12/13 02:35:20;;;;;;;3.67;3.37;;;;;;;3.49;100.00;100410.56;5072826;28;20222;-73
2021/12/13 02:37:48;;;;;;;4.60;3.43;;;;;;;3.66;100.00;100416.47;5073389;28;20202;-73
2021/12/13 02:40:19;;;;;;;3.43;3.13;;;;;;;3.65;100.00;100413.84;5072741;28;20195;-73
2021/12/13 02:42:48;;;;;;;6.33;4.37;;;;;;;3.73;100.00;100415.09;5085039;28;20221;-73
2021/12/13 02:45:23;;;;;;;3.00;2.80;;;;;;;3.71;100.00;100421.84;5093292;28;20194;-73
2021/12/13 02:47:57;;;;;;;9.20;5.23;;;;;;;3.68;100.00;100431.91;5083326;28;20627;-73
2021/12/13 02:50:31;;;;;;;3.27;2.97;;;;;;;3.65;100.00;100417.28;5092084;28;20201;-73
2021/12/13 02:53:00;;;;;;;2.77;2.57;;;;;;;3.63;100.00;100424.03;5093315;28;20205;-73
2021/12/13 02:55:31;;;;;;;4.23;3.83;;;;;;;3.54;100.00;100425.25;5093085;28;20221;-74
2021/12/13 02:58:03;;;;;;;3.83;3.53;;;;;;;3.40;100.00;100411.78;5092850;28;20277;-73
2021/12/13 03:00:34;;;;;;;3.27;3.07;;;;;;;3.54;100.00;100423.56;5093778;28;20202;-73
2021/12/13 03:03:05;;;;;;;4.17;3.87;;;;;;;3.46;100.00;100418.06;5093466;28;20229;-74
2021/12/13 03:05:36;;;;;;;3.23;3.03;;;;;;;3.59;100.00;100423.81;5091059;28;20201;-73
2021/12/13 03:08:08;;;;;;;1.67;1.57;;;;;;;3.54;100.00;100420.13;5072917;28;20190;-73
2021/12/13 03:10:47;;;;;;;4.03;3.60;;;;;;;3.57;100.00;100417.75;5074273;28;20248;-73
2021/12/13 03:13:14;;;;;;;5.57;4.20;;;;;;;3.45;100.00;100403.53;5092901;28;20205;-73
2021/12/13 03:15:47;;;;;;;6.23;3.90;;;;;;;3.24;100.00;100376.88;5083429;28;20191;-73
2021/12/13 03:18:22;;;;;;;3.83;3.37;;;;;;;3.55;100.00;100424.47;5072446;28;20274;-73
2021/12/13 03:21:27;;;;;;;4.07;3.60;;;;;;;3.63;100.00;100423.16;5071273;28;20743;-73
2021/12/13 03:24:08;;;;;;;3.30;2.33;;;;;;;3.57;100.00;100425.44;5044259;28;20234;-73
2021/12/13 03:27:06;;;;;;;3.53;3.23;;;;;;;3.52;100.00;100421.75;5090260;28;20201;-73
2021/12/13 03:29:44;;;;;;;3.50;3.20;;;;;;;3.35;100.00;100385.94;5092177;28;20198;-73
2021/12/13 03:32:13;;;;;;;3.23;2.93;;;;;;;3.46;100.00;100420.66;5092245;28;20197;-73
2021/12/13 03:34:44;;;;;;;2.27;2.07;;;;;;;3.53;100.00;100420.97;5092590;28;20198;-73
2021/12/13 03:37:16;;;;;;;2.73;2.50;;;;;;;3.49;100.00;100419.94;5092795;28;20221;-73
2021/12/13 03:39:45;;;;;;;12.10;5.73;;;;;;;3.44;100.00;100417.13;5092446;28;20198;-73
2021/12/13 03:42:16;;;;;;;5.53;4.53;;;;;;;3.38;100.00;100413.41;5076487;28;20222;-73
2021/12/13 03:44:47;;;;;;;4.23;3.57;;;;;;;3.44;100.00;100412.00;5083770;28;20618;-73
2021/12/13 03:47:19;;;;;;;5.53;4.03;;;;;;;3.50;100.00;100416.53;5092007;28;20240;-73
2021/12/13 03:49:49;;;;;;;5.13;3.00;;;;;;;3.32;100.00;100402.84;5091260;28;20201;-73
2021/12/13 03:52:20;;;;;;;4.03;3.37;;;;;;;3.03;100.00;100370.69;5091494;28;20198;-74
2021/12/13 03:54:49;;;;;;;6.53;4.97;;;;;;;3.31;100.00;100404.56;5091955;28;20680;-73
2021/12/13 03:57:19;;;;;;;7.93;4.10;;;;;;;3.30;100.00;100405.34;5092006;28;20201;-74
2021/12/13 03:59:48;;;;;;;2.53;2.33;;;;;;;3.11;100.00;100384.75;5091910;28;20202;-73
2021/12/13 04:02:18;;;;;;;4.17;3.67;;;;;;;3.18;100.00;100404.72;5091305;28;20214;-73
2021/12/13 04:04:50;;;;;;;12.00;5.60;;;;;;;3.07;100.00;100407.59;5071903;28;20217;-73
2021/12/13 04:07:21;;;;;;;20.40;7.87;;;;;;;3.09;100.00;100411.97;5071867;28;20202;-73
2021/12/13 04:09:49;;;;;;;15.43;7.97;;;;;;;3.01;100.00;100408.16;5071462;28;20202;-73
2021/12/13 04:12:23;;;;;;;11.20;6.03;;;;;;;3.17;100.00;100415.81;5071746;28;20203;-74
2021/12/13 04:14:56;;;;;;;9.73;5.37;;;;;;;3.18;100.00;100416.66;5079353;28;20195;-73
2021/12/13 04:17:37;;;;;;;10.00;5.80;;;;;;;3.02;100.00;100425.28;5071478;28;20578;-72
2021/12/13 04:20:09;;;;;;;9.87;5.70;;;;;;;3.17;100.00;100420.94;5070521;28;20207;-73
2021/12/13 04:22:40;;;;;;;3.63;3.30;;;;;;;3.13;100.00;100424.13;5082255;28;20226;-73
2021/12/13 04:25:10;;;;;;;8.80;5.33;;;;;;;3.09;100.00;100436.69;5091947;28;20209;-73
2021/12/13 04:27:43;;;;;;;8.03;5.13;;;;;;;3.03;100.00;100386.06;5091479;28;20194;-74
2021/12/13 04:30:18;;;;;;;8.27;5.00;;;;;;;3.17;100.00;100436.28;5091709;28;20194;-72
2021/12/13 04:32:48;;;;;;;7.30;5.63;;;;;;;3.28;100.00;100440.25;5091444;28;20266;-72
2021/12/13 04:35:15;;;;;;;9.60;5.73;;;;;;;3.18;100.00;100438.03;5091471;28;20229;-72
2021/12/13 04:37:46;;;;;;;6.17;4.30;;;;;;;3.11;100.00;100446.22;5091713;28;20284;-73
2021/12/13 04:40:18;;;;;;;3.80;2.93;;;;;;;3.23;100.00;100440.84;5090369;28;20660;-72
2021/12/13 04:42:50;;;;;;;6.03;4.87;;;;;;;3.26;100.00;100441.88;5071309;28;20682;-72
2021/12/13 04:45:20;;;;;;;8.43;5.50;;;;;;;3.24;100.00;100443.47;5085061;28;20198;-72
2021/12/13 04:47:54;;;;;;;26.33;13.03;;;;;;;3.12;100.00;100447.09;5073225;28;20260;-72
2021/12/13 04:50:25;;;;;;;12.70;6.57;;;;;;;3.13;100.00;100456.56;5070164;28;20201;-72
2021/12/13 04:52:52;;;;;;;11.13;7.40;;;;;;;3.11;100.00;100456.47;5071442;28;20199;-75
2021/12/13 04:55:23;;;;;;;13.37;8.77;;;;;;;3.28;100.00;100471.00;5072339;28;20207;-74
2021/12/13 04:57:55;;;;;;;19.00;8.57;;;;;;;3.34;100.00;100471.31;5071679;28;20206;-73
2021/12/13 05:00:26;;;;;;;39.10;19.80;;;;;;;3.36;100.00;100479.94;5081284;28;20210;-73
2021/12/13 05:02:58;;;;;;;12.00;7.50;;;;;;;3.36;100.00;100482.50;5091489;28;20229;-72
2021/12/13 05:05:24;;;;;;;36.63;18.87;;;;;;;3.30;100.00;100484.78;5094654;28;20194;-73
2021/12/13 05:07:54;;;;;;;22.20;11.33;;;;;;;3.35;100.00;100487.56;5095338;28;20194;-73
2021/12/13 05:10:24;;;;;;;28.53;14.60;;;;;;;3.22;100.00;100483.50;5094871;28;20190;-73
2021/12/13 05:13:07;;;;;;;18.70;11.40;;;;;;;3.39;100.00;100492.91;5095287;28;20201;-73
2021/12/13 05:15:37;;;;;;;8.83;5.97;;;;;;;3.37;100.00;100489.41;5077496;28;20190;-73
2021/12/13 05:18:08;;;;;;;13.07;7.90;;;;;;;3.36;100.00;100495.31;5093032;28;20259;-73
2021/12/13 05:20:38;;;;;;;11.27;6.20;;;;;;;3.34;100.00;100496.94;5073734;28;20226;-73
2021/12/13 05:23:08;;;;;;;16.07;9.63;;;;;;;3.41;100.00;100506.69;5085402;28;20601;-73
2021/12/13 05:25:38;;;;;;;18.30;11.53;;;;;;;3.43;100.00;100507.63;5094898;28;20190;-73
2021/12/13 05:28:13;;;;;;;7.73;5.57;;;;;;;3.47;100.00;100512.13;5088554;28;20202;-73
2021/12/13 05:30:45;;;;;;;39.60;19.97;;;;;;;3.38;100.00;100498.84;5074223;28;20230;-73
2021/12/13 05:33:16;;;;;;;31.83;14.37;;;;;;;3.29;100.00;100498.38;5074616;28;20601;-73
2021/12/13 05:35:46;;;;;;;61.63;23.63;;;;;;;3.40;100.00;100510.06;5074118;28;20223;-73
2021/12/13 05:38:28;;;;;;;45.67;21.43;;;;;;;3.48;100.00;100507.88;5083172;28;20201;-73
2021/12/13 05:40:56;;;;;;;10.63;5.87;;;;;;;3.41;100.00;100510.94;5094767;28;20197;-73
2021/12/13 05:43:27;;;;;;;25.87;13.20;;;;;;;3.53;100.00;100513.25;5092398;28;20226;-73
2021/12/13 05:45:58;;;;;;;24.70;14.07;;;;;;;3.57;100.00;100503.19;5079193;28;20202;-73
2021/12/13 05:48:41;;;;;;;20.67;10.40;;;;;;;3.55;100.00;100501.38;5074097;28;20195;-73
2021/12/13 05:51:20;;;;;;;17.20;10.33;;;;;;;3.37;100.00;100506.47;5076104;28;20220;-73
2021/12/13 05:53:53;;;;;;;9.63;7.20;;;;;;;3.35;100.00;100488.44;5094190;28;20205;-73
2021/12/13 05:56:21;;;;;;;24.03;11.80;;;;;;;3.56;100.00;100518.50;5090318;28;20665;-73
2021/12/13 05:58:52;;;;;;;41.77;18.17;;;;;;;3.43;100.00;100510.19;5074273;28;20202;-73
2021/12/13 06:01:24;;;;;;;20.57;12.47;;;;;;;3.41;100.00;100514.38;5084910;28;20199;-73
2021/12/13 06:03:54;;;;;;;19.10;9.63;;;;;;;3.49;100.00;100513.09;5080550;28;20676;-73
2021/12/13 06:06:26;;;;;;;34.03;15.93;;;;;;;3.40;100.00;100504.94;5094026;28;20217;-75
2021/12/13 06:08:55;;;;;;;31.97;16.97;;;;;;;3.59;100.00;100516.09;5079981;28;20202;-77
2021/12/13 06:11:32;;;;;;;33.53;17.07;;;;;;;3.39;100.00;100510.84;5074069;28;20328;-74
2021/12/13 06:14:16;;;;;;;16.80;7.03;;;;;;;3.39;100.00;100500.59;5074000;28;20198;-72
2021/12/13 06:16:56;;;;;;;12.50;7.33;;;;;;;3.38;100.00;100509.13;5077930;28;20694;-73
2021/12/13 06:19:30;;;;;;;9.53;6.87;;;;;;;3.26;100.00;100512.72;5072951;28;20241;-73
2021/12/13 06:22:05;;;;;;;5.47;4.37;;;;;;;3.37;100.00;100485.97;5073837;28;20222;-73
2021/12/13 06:24:37;;;;;;;7.50;5.37;;;;;;;3.72;100.00;100518.44;5078575;28;20226;-73
2021/12/13 06:27:11;;;;;;;8.77;5.13;;;;;;;3.77;100.00;100517.00;5073480;28;20206;-73
2021/12/13 06:29:53;;;;;;;23.77;12.60;;;;;;;3.71;100.00;100524.41;5073253;28;20206;-74
2021/12/13 06:32:26;;;;;;;19.97;13.40;;;;;;;3.52;100.00;100531.97;5073809;28;20558;-72
2021/12/13 06:34:54;;;;;;;7.13;6.43;;;;;;;3.40;100.00;100533.13;5076607;28;20604;-73
2021/12/13 06:37:27;;;;;;;5.30;4.80;;;;;;;3.53;100.00;100539.75;5073116;28;20203;-73
2021/12/13 06:40:14;;;;;;;13.00;8.30;;;;;;;3.59;100.00;100539.16;5077283;28;20586;-73
2021/12/13 06:42:41;;;;;;;5.23;4.20;;;;;;;3.53;100.00;100555.13;5080077;28;20195;-74
2021/12/13 06:45:23;;;;;;;7.30;6.17;;;;;;;3.58;100.00;100565.59;5073170;28;20230;-74
2021/12/13 06:47:51;;;;;;;7.63;5.33;;;;;;;3.59;100.00;100569.94;5073225;28;20213;-73
2021/12/13 06:50:25;;;;;;;2.87;2.03;;;;;;;3.52;100.00;100568.75;5077313;28;20194;-73
2021/12/13 06:52:53;;;;;;;9.33;5.87;;;;;;;3.57;100.00;100574.13;5083661;28;20198;-73
2021/12/13 06:55:21;;;;;;;9.07;5.17;;;;;;;3.54;100.00;100561.13;5073096;28;20213;-74
2021/12/13 06:57:50;;;;;;;6.73;4.83;;;;;;;3.46;100.00;100583.81;5072933;28;20202;-73
2021/12/13 07:00:28;;;;;;;10.60;7.30;;;;;;;3.87;100.00;100578.19;5072944;28;20199;-74
2021/12/13 07:02:58;;;;;;;5.63;4.93;;;;;;;3.72;100.00;100572.28;5072471;28;20669;-73
2021/12/13 07:05:28;;;;;;;6.47;5.53;;;;;;;3.69;100.00;100582.41;5083523;28;20205;-73
2021/12/13 07:07:59;;;;;;;7.10;5.70;;;;;;;3.83;100.00;100581.41;5093077;28;20627;-74
2021/12/13 07:10:29;;;;;;;3.97;3.67;;;;;;;3.59;100.00;100575.06;5091912;28;20681;-74
2021/12/13 07:13:01;;;;;;;4.10;3.57;;;;;;;3.50;100.00;100575.47;5092815;28;20282;-73
2021/12/13 07:15:34;;;;;;;4.40;4.00;;;;;;;3.44;100.00;100580.28;5093853;28;20221;-73
2021/12/13 07:18:12;;;;;;;4.77;4.27;;;;;;;3.49;100.00;100568.59;5092641;28;20198;-74
2021/12/13 07:20:42;;;;;;;3.90;3.50;;;;;;;3.52;100.00;100558.50;5091706;28;20696;-74
2021/12/13 07:23:10;;;;;;;6.27;4.03;;;;;;;3.41;100.00;100537.44;5092839;28;20193;-73
2021/12/13 07:25:39;;;;;;;6.13;4.67;;;;;;;3.60;100.00;100587.09;5092759;28;20205;-74
2021/12/13 07:28:08;;;;;;;14.53;8.40;;;;;;;3.78;100.00;100582.88;5090469;28;20194;-74
2021/12/13 07:30:38;;;;;;;13.53;9.10;;;;;;;3.53;100.00;100565.38;5090825;28;20248;-74
2021/12/13 07:33:11;;;;;;;6.53;4.37;;;;;;;3.84;100.00;100585.75;5071947;28;20205;-75
2021/12/13 07:35:43;;;;;;;11.63;6.27;;;;;;;3.42;100.00;100559.69;5072165;28;20230;-73
2021/12/13 07:38:12;;;;;;;9.73;5.60;;;;;;;3.68;100.00;100596.03;5071787;28;20203;-73
2021/12/13 07:40:42;;;;;;;3.93;3.50;;;;;;;3.64;100.00;100589.84;5072353;28;20195;-74
2021/12/13 07:43:17;;;;;;;3.73;3.43;;;;;;;3.86;100.00;100586.69;5071042;28;20238;-74
2021/12/13 07:45:56;;;;;;;4.10;3.70;;;;;;;3.71;100.00;100591.06;5071509;28;20636;-73
2021/12/13 07:48:26;;;;;;;3.27;2.97;;;;;;;3.87;100.00;100591.00;5072010;28;20201;-73
2021/12/13 07:51:01;;;;;;;3.87;3.27;;;;;;;3.83;100.00;100572.03;5071390;28;20190;-74
2021/12/13 07:53:38;;;;;;;7.27;5.30;;;;;;;4.07;100.00;100581.75;5071889;28;20699;-73
2021/12/13 07:56:06;;;;;;;6.17;5.23;;;;;;;3.98;100.00;100589.88;5072108;28;20214;-73
2021/12/13 07:58:38;;;;;;;15.50;7.97;;;;;;;4.07;100.00;100598.00;5071704;28;20230;-73
2021/12/13 08:01:26;;;;;;;10.40;6.80;;;;;;;4.19;100.00;100588.34;5072027;28;20195;-74
2021/12/13 08:03:56;;;;;;;10.47;5.00;;;;;;;4.02;100.00;100599.47;5070259;28;20218;-72
2021/12/13 08:06:27;;;;;;;7.30;5.27;;;;;;;3.97;100.00;100596.69;5071957;28;20222;-72
2021/12/13 08:08:58;;;;;;;11.77;7.67;;;;;;;4.08;100.00;100592.06;5080774;28;20198;-72
2021/12/13 08:11:38;;;;;;;8.37;5.53;;;;;;;4.02;100.00;100620.00;5091119;28;20197;-71
2021/12/13 08:14:06;;;;;;;17.23;8.63;;;;;;;4.04;100.00;100618.38;5090722;28;20206;-72
2021/12/13 08:16:38;;;;;;;8.80;5.87;;;;;;;4.12;100.00;100621.31;5075577;28;20190;-72
2021/12/13 08:19:13;;;;;;;6.87;5.23;;;;;;;4.10;100.00;100618.69;5075331;28;20259;-73
2021/12/13 08:21:43;;;;;;;8.80;6.03;;;;;;;4.27;100.00;100622.97;5075831;28;20194;-72
2021/12/13 08:24:23;;;;;;;7.23;5.17;;;;;;;4.22;100.00;100626.09;5077126;28;20218;-72
2021/12/13 08:27:00;;;;;;;5.20;4.00;;;;;;;4.12;100.00;100624.78;5071067;28;20199;-72
2021/12/13 08:29:32;;;;;;;8.93;5.43;;;;;;;4.30;100.00;100623.09;5070899;28;20202;-72
2021/12/13 08:32:04;;;;;;;5.60;4.70;;;;;;;4.20;100.00;100615.78;5071144;28;20237;-73
2021/12/13 08:34:34;;;;;;;6.80;5.20;;;;;;;4.25;100.00;100628.81;5086437;28;20194;-72
2021/12/13 08:37:10;;;;;;;15.80;7.07;;;;;;;4.42;100.00;100628.81;5090905;28;20832;-73
2021/12/13 08:39:39;;;;;;;16.20;7.70;;;;;;;4.40;100.00;100637.25;5087466;28;20681;-73
2021/12/13 08:42:09;;;;;;;18.30;7.43;;;;;;;4.55;100.00;100627.72;5076102;28;20195;-72
2021/12/13 08:44:41;;;;;;;16.93;7.53;;;;;;;4.70;100.00;100635.28;5095291;28;20234;-73
2021/12/13 08:47:13;;;;;;;11.20;5.27;;;;;;;4.61;100.00;100639.97;5089626;28;20223;-72
2021/12/13 08:49:43;;;;;;;7.87;5.30;;;;;;;4.63;100.00;100644.38;5074177;28;20259;-72
2021/12/13 08:52:20;;;;;;;19.47;10.77;;;;;;;4.50;100.00;100637.75;5075116;28;20195;-73
2021/12/13 08:54:57;;;;;;;18.63;11.00;;;;;;;4.65;100.00;100644.44;5075910;28;20206;-73
2021/12/13 08:57:38;;;;;;;116.13;52.10;;;;;;;4.70;100.00;100640.41;5074763;28;20194;-74
2021/12/13 09:00:19;;;;;;;51.67;25.47;;;;;;;4.74;100.00;100642.31;5091541;28;20217;-74
2021/12/13 09:02:53;;;;;;;22.97;11.90;;;;;;;4.83;100.00;100642.72;5084341;28;20201;-73
2021/12/13 09:05:24;;;;;;;35.10;15.93;;;;;;;5.01;100.00;100638.44;5074302;28;20662;-73
2021/12/13 09:07:55;;;;;;;11.00;7.97;;;;;;;5.07;100.00;100627.56;5074745;28;20194;-73
2021/12/13 09:10:36;;;;;;;4.83;4.37;;;;;;;4.99;100.00;100633.22;5085071;28;20208;-72
2021/12/13 09:13:03;;;;;;;4.93;4.33;;;;;;;4.95;100.00;100627.91;5093476;28;20194;-73
2021/12/13 09:15:34;;;;;;;11.33;7.93;;;;;;;5.00;100.00;100634.09;5094871;28;20197;-72
2021/12/13 09:18:03;;;;;;;10.37;6.73;;;;;;;4.90;100.00;100634.50;5094414;28;20738;-72
2021/12/13 09:20:34;;;;;;;9.83;7.07;;;;;;;5.05;100.00;100624.94;5093225;28;20275;-73
2021/12/13 09:23:10;;;;;;;16.43;8.47;;;;;;;5.15;100.00;100624.53;5094792;28;20289;-73
2021/12/13 09:25:43;;;;;;;11.70;6.10;;;;;;;5.17;100.00;100625.50;5093608;28;20229;-72
2021/12/13 09:28:14;;;;;;;17.57;11.03;;;;;;;5.12;100.00;100624.41;5084901;28;20705;-73
2021/12/13 09:30:44;;;;;;;15.07;7.67;;;;;;;4.88;100.00;100616.47;5074388;28;20356;-73
2021/12/13 09:33:19;;;;;;;23.30;13.93;;;;;;;4.83;100.00;100617.03;5073678;28;20585;-73
2021/12/13 09:35:53;;;;;;;6.23;4.53;;;;;;;4.95;100.00;100608.22;5073567;28;20301;-72
2021/12/13 09:38:34;;;;;;;8.57;6.07;;;;;;;5.14;100.00;100615.06;5081611;28;20247;-73
2021/12/13 09:41:24;;;;;;;7.37;5.37;;;;;;;5.21;100.00;100617.09;5094347;28;20197;-73
2021/12/13 09:43:58;;;;;;;10.90;6.87;;;;;;;5.15;100.00;100614.25;5093700;28;20201;-72
2021/12/13 09:46:32;;;;;;;10.57;5.67;;;;;;;5.40;100.00;100611.06;5091458;28;20205;-74
2021/12/13 09:49:05;;;;;;;12.10;7.10;;;;;;;5.31;100.00;100602.97;5086698;28;20691;-73
2021/12/13 09:51:37;;;;;;;13.93;7.50;;;;;;;5.45;100.00;100605.34;5088150;28;20191;-73
2021/12/13 09:54:08;;;;;;;15.33;8.33;;;;;;;5.53;100.00;100600.50;5073737;28;20623;-73
2021/12/13 09:56:39;;;;;;;5.17;4.17;;;;;;;5.36;100.00;100609.19;5073773;28;20217;-73
2021/12/13 09:59:15;;;;;;;17.80;10.27;;;;;;;5.35;100.00;100604.88;5088168;28;20680;-73
2021/12/13 10:01:43;;;;;;;9.47;4.87;;;;;;;5.62;100.00;100600.03;5074684;28;20601;-72
2021/12/13 10:04:14;;;;;;;5.10;4.40;;;;;;;5.59;100.00;100599.91;5077667;28;20304;-73
2021/12/13 10:06:45;;;;;;;12.93;9.70;;;;;;;5.62;100.00;100610.31;5083854;28;20194;-73
2021/12/13 10:09:16;;;;;;;6.97;4.00;;;;;;;5.48;100.00;100604.59;5093212;28;20193;-73
2021/12/13 10:11:47;;;;;;;9.63;6.70;;;;;;;5.40;100.00;100604.25;5093972;28;20198;-73
2021/12/13 10:14:16;;;;;;;5.63;4.07;;;;;;;5.67;100.00;100595.97;5092413;28;20198;-73
2021/12/13 10:16:47;;;;;;;9.77;5.10;;;;;;;5.58;100.00;100577.56;5093674;28;20251;-73
2021/12/13 10:19:19;;;;;;;11.83;6.97;;;;;;;5.87;100.00;100602.84;5072852;28;20394;-73
2021/12/13 10:21:48;;;;;;;4.90;3.93;;;;;;;5.83;100.00;100606.09;5072230;28;20579;-73
2021/12/13 10:24:19;;;;;;;8.83;5.23;;;;;;;5.81;100.00;100608.59;5073317;28;20226;-73
2021/12/13 10:26:49;;;;;;;7.33;4.13;;;;;;;5.70;100.00;100614.09;5074071;28;20195;-73
2021/12/13 10:29:17;;;;;;;11.40;7.50;;;;;;;5.62;100.00;100610.31;5072659;28;20687;-73
2021/12/13 10:31:47;;;;;;;21.33;8.43;;;;;;;5.46;100.00;100573.66;5073246;28;20190;-72
2021/12/13 10:34:20;;;;;;;51.53;19.00;;;;;;;5.83;100.00;100585.50;5073029;28;20206;-73
2021/12/13 10:36:52;;;;;;;157.60;50.37;;;;;;;5.65;100.00;100597.56;5072604;28;20235;-73
2021/12/13 10:39:24;;;;;;;87.90;35.33;;;;;;;5.54;100.00;100601.38;5072520;28;20199;-72
2021/12/13 10:41:54;;;;;;;32.90;15.10;;;;;;;5.64;100.00;100598.38;5072750;28;20673;-72
2021/12/13 10:44:28;;;;;;;15.90;9.03;;;;;;;5.91;100.00;100597.03;5072377;28;20223;-74
2021/12/13 10:46:59;;;;;;;12.23;8.43;;;;;;;5.88;100.00;100589.19;5073633;28;20234;-73
2021/12/13 10:49:30;;;;;;;35.10;17.27;;;;;;;5.95;100.00;100602.38;5072359;28;20202;-74
2021/12/13 10:52:02;;;;;;;16.50;7.53;;;;;;;6.09;100.00;100600.38;5071778;28;20229;-73
2021/12/13 10:54:32;;;;;;;10.73;5.63;;;;;;;5.83;100.00;100600.94;5084312;28;20202;-72
2021/12/13 10:57:04;;;;;;;7.63;4.23;;;;;;;5.83;100.00;100598.34;5083568;28;20640;-73
2021/12/13 10:59:33;;;;;;;14.47;5.87;;;;;;;5.89;100.00;100585.78;5073444;28;20203;-73
2021/12/13 11:02:06;;;;;;;9.17;5.03;;;;;;;5.92;100.00;100591.94;5071854;28;20206;-72
2021/12/13 11:04:38;;;;;;;6.17;3.80;;;;;;;5.77;100.00;100596.44;5084755;28;20286;-72
2021/12/13 11:07:07;;;;;;;7.77;6.13;;;;;;;5.82;100.00;100599.16;5090955;28;20198;-73
2021/12/13 11:09:37;;;;;;;7.27;4.87;;;;;;;5.84;100.00;100607.84;5091927;28;20669;-72
2021/12/13 11:12:07;;;;;;;27.03;15.63;;;;;;;5.95;100.00;100580.91;5092375;28;20733;-72
2021/12/13 11:14:38;;;;;;;43.13;21.67;;;;;;;6.26;100.00;100599.34;5074856;28;20677;-73
2021/12/13 11:17:12;;;;;;;23.30;13.53;;;;;;;6.25;100.00;100602.72;5080622;28;20226;-73
2021/12/13 11:19:43;;;;;;;15.40;9.83;;;;;;;6.28;100.00;100596.81;5085942;28;20221;-74
2021/12/13 11:22:14;;;;;;;10.90;5.87;;;;;;;6.20;100.00;100593.97;5071650;28;20201;-75
2021/12/13 11:24:44;;;;;;;9.23;5.90;;;;;;;6.04;100.00;100595.81;5086581;28;20226;-73
2021/12/13 11:27:15;;;;;;;13.07;6.07;;;;;;;6.00;100.00;100589.66;5090483;28;20209;-73
2021/12/13 11:29:43;;;;;;;6.03;5.10;;;;;;;5.82;100.00;100582.03;5091882;28;20238;-73
2021/12/13 11:32:39;;;;;;;20.03;11.27;;;;;;;6.21;100.00;100587.09;5091977;28;20194;-74
2021/12/13 11:35:39;;;;;;;5.53;3.60;;;;;;;6.05;100.00;100583.03;5077164;28;20629;-73
2021/12/13 11:38:20;;;;;;;16.47;8.57;;;;;;;6.13;100.00;100576.50;5071847;28;20271;-74
2021/12/13 11:41:11;;;;;;;9.43;5.80;;;;;;;6.13;100.00;100578.19;5071576;28;20241;-74
2021/12/13 11:44:05;;;;;;;54.60;23.70;;;;;;;6.09;100.00;100572.06;5071645;28;20195;-74
2021/12/13 11:47:03;;;;;;;59.53;28.33;;;;;;;6.31;100.00;100571.22;5073769;28;20233;-74
2021/12/13 11:49:47;;;;;;;40.77;18.77;;;;;;;6.52;100.00;100568.59;5037725;28;20615;-73
2021/12/13 11:52:46;;;;;;;10.33;7.27;;;;;;;6.24;100.00;100574.38;5084912;28;20194;-73